createdAt,value
2023-10-24T00:02:25.130Z,1.60
2023-10-24T00:04:51.672Z,1.55
2023-10-24T00:07:18.190Z,1.65
2023-10-24T00:09:44.723Z,1.70
2023-10-24T00:12:11.203Z,1.92
2023-10-24T00:14:37.810Z,2.00
2023-10-24T00:17:05.151Z,1.92
2023-10-24T00:19:31.786Z,2.20
2023-10-24T00:21:58.450Z,1.90
2023-10-24T00:24:27.048Z,2.10
2023-10-24T00:26:53.559Z,1.65
2023-10-24T00:29:20.045Z,2.80
2023-10-24T00:31:46.645Z,1.70
2023-10-24T00:34:13.924Z,1.67
2023-10-24T00:36:42.014Z,2.38
2023-10-24T00:39:09.623Z,1.73
2023-10-24T00:41:36.475Z,1.92
2023-10-24T00:44:03.159Z,1.98
2023-10-24T00:46:30.997Z,1.73
2023-10-24T00:48:58.176Z,1.80
2023-10-24T00:51:24.903Z,1.85
2023-10-24T00:53:53.126Z,2.17
2023-10-24T00:56:21.602Z,1.60
2023-10-24T00:58:49.442Z,2.35
2023-10-24T01:01:16.698Z,1.73
2023-10-24T01:03:44.275Z,1.40
2023-10-24T01:06:11.036Z,2.00
2023-10-24T01:08:37.718Z,2.25
2023-10-24T01:11:05.491Z,1.92
2023-10-24T01:13:33.161Z,2.00
2023-10-24T01:15:59.740Z,1.80
2023-10-24T01:22:13.400Z,1.95
2023-10-24T01:24:40.314Z,2.00
2023-10-24T01:27:07.054Z,1.83
2023-10-24T01:29:33.572Z,1.55
2023-10-24T01:32:00.196Z,1.90
2023-10-24T01:34:26.858Z,1.83
2023-10-24T01:36:53.400Z,2.00
2023-10-24T01:39:19.896Z,1.90
2023-10-24T01:41:46.494Z,1.70
2023-10-24T01:44:12.998Z,1.83
2023-10-24T01:46:39.563Z,1.83
2023-10-24T01:49:06.181Z,2.03
2023-10-24T01:51:32.690Z,2.28
2023-10-24T01:53:59.214Z,2.42
2023-10-24T01:56:25.758Z,1.92
2023-10-24T01:58:52.416Z,1.70
2023-10-24T02:01:18.980Z,2.17
2023-10-24T02:03:45.605Z,2.15
2023-10-24T02:06:12.419Z,1.83
2023-10-24T02:08:38.880Z,2.03
2023-10-24T02:11:05.458Z,2.13
2023-10-24T02:13:32.061Z,2.22
2023-10-24T02:15:58.637Z,2.65
2023-10-24T02:18:25.156Z,2.13
2023-10-24T02:20:51.660Z,2.03
2023-10-24T02:23:18.471Z,2.80
2023-10-24T02:25:45.070Z,2.10
2023-10-24T02:28:12.646Z,2.25
2023-10-24T02:30:39.388Z,2.13
2023-10-24T02:33:06.277Z,2.30
2023-10-24T02:35:32.854Z,2.15
2023-10-24T02:37:59.316Z,1.92
2023-10-24T02:40:25.859Z,2.10
2023-10-24T02:42:52.412Z,2.00
2023-10-24T02:45:19.109Z,2.40
2023-10-24T02:47:45.749Z,2.47
2023-10-24T02:50:12.364Z,2.60
2023-10-24T02:52:39.339Z,2.53
2023-10-24T02:55:07.052Z,2.55
2023-10-24T02:57:33.555Z,2.85
2023-10-24T03:00:00.112Z,2.55
2023-10-24T03:02:27.050Z,2.60
2023-10-24T03:04:53.584Z,2.63
2023-10-24T03:07:20.192Z,3.08
2023-10-24T03:09:47.689Z,2.47
2023-10-24T03:12:14.705Z,2.63
2023-10-24T03:14:41.394Z,3.00
2023-10-24T03:17:09.648Z,2.45
2023-10-24T03:19:36.312Z,2.83
2023-10-24T03:22:02.913Z,1.98
2023-10-24T03:24:32.613Z,3.42
2023-10-24T03:26:59.155Z,2.58
2023-10-24T03:29:25.691Z,2.72
2023-10-24T03:31:52.170Z,3.20
2023-10-24T03:34:18.864Z,2.80
2023-10-24T03:36:45.556Z,2.85
2023-10-24T03:39:12.065Z,3.08
2023-10-24T03:41:38.666Z,3.00
2023-10-24T03:44:05.423Z,2.80
2023-10-24T03:46:32.091Z,2.85
2023-10-24T03:48:58.722Z,2.80
2023-10-24T03:51:26.076Z,3.60
2023-10-24T03:53:52.717Z,3.13
2023-10-24T03:56:19.272Z,3.20
2023-10-24T03:58:45.820Z,2.58
2023-10-24T04:01:12.806Z,2.80
2023-10-24T04:03:39.451Z,2.60
2023-10-24T04:06:12.643Z,2.97
2023-10-24T04:08:40.348Z,3.47
2023-10-24T04:11:17.489Z,3.35
2023-10-24T04:13:45.062Z,3.80
2023-10-24T04:16:12.216Z,3.28
2023-10-24T04:18:39.703Z,3.33
2023-10-24T04:21:06.444Z,3.53
2023-10-24T04:23:33.236Z,3.03
2023-10-24T04:25:59.734Z,2.70
2023-10-24T04:28:26.303Z,3.42
2023-10-24T04:30:53.634Z,4.07
2023-10-24T04:33:20.273Z,3.85
2023-10-24T04:35:48.605Z,3.08
2023-10-24T04:38:15.316Z,3.47
2023-10-24T04:40:41.896Z,3.42
2023-10-24T04:43:09.882Z,3.88
2023-10-24T04:45:37.713Z,3.50
2023-10-24T04:48:05.971Z,2.88
2023-10-24T04:50:36.607Z,3.22
2023-10-24T04:53:03.140Z,3.40
2023-10-24T04:55:30.012Z,3.75
2023-10-24T04:57:56.562Z,4.40
2023-10-24T05:00:23.382Z,3.75
2023-10-24T05:02:49.906Z,3.47
2023-10-24T05:05:16.532Z,3.08
2023-10-24T05:07:43.101Z,3.58
2023-10-24T05:10:11.345Z,3.03
2023-10-24T05:12:38.494Z,2.97
2023-10-24T05:15:06.171Z,3.42
2023-10-24T05:17:32.771Z,3.33
2023-10-24T05:20:00.789Z,3.47
2023-10-24T05:22:27.401Z,3.75
2023-10-24T05:24:54.086Z,3.35
2023-10-24T05:27:20.756Z,3.45
2023-10-24T05:29:47.386Z,2.95
2023-10-24T05:32:14.175Z,2.97
2023-10-24T05:34:41.052Z,3.50
2023-10-24T05:37:07.800Z,2.90
2023-10-24T05:39:34.561Z,3.50
2023-10-24T05:42:01.110Z,3.30
2023-10-24T05:44:27.602Z,3.28
2023-10-24T05:46:56.155Z,3.05
2023-10-24T05:49:23.192Z,3.47
2023-10-24T05:51:49.968Z,3.92
2023-10-24T05:54:16.627Z,3.58
2023-10-24T05:56:43.262Z,3.72
2023-10-24T05:59:09.774Z,3.80
2023-10-24T06:01:36.402Z,4.15
2023-10-24T06:04:03.059Z,3.88
2023-10-24T06:06:29.651Z,3.67
2023-10-24T06:08:56.147Z,3.90
2023-10-24T06:11:22.670Z,4.07
2023-10-24T06:13:49.222Z,3.53
2023-10-24T06:16:19.517Z,4.60
2023-10-24T06:18:46.219Z,5.45
2023-10-24T06:21:13.648Z,4.03
2023-10-24T06:23:40.448Z,4.30
2023-10-24T06:26:14.585Z,4.00
2023-10-24T06:28:41.830Z,3.72
2023-10-24T06:31:08.816Z,3.97
2023-10-24T06:33:38.361Z,4.32
2023-10-24T06:36:06.159Z,4.47
2023-10-24T06:38:32.736Z,4.43
2023-10-24T06:41:00.118Z,4.63
2023-10-24T06:43:27.393Z,5.45
2023-10-24T06:45:55.045Z,5.03
2023-10-24T06:48:21.758Z,4.15
2023-10-24T06:50:49.153Z,4.80
2023-10-24T06:53:15.787Z,3.92
2023-10-24T06:55:42.887Z,4.05
2023-10-24T06:58:09.603Z,4.63
2023-10-24T07:00:36.408Z,4.50
2023-10-24T07:03:03.026Z,4.03
2023-10-24T07:05:29.809Z,3.95
2023-10-24T07:07:56.494Z,4.50
2023-10-24T07:10:23.223Z,3.65
2023-10-24T07:12:49.934Z,3.75
2023-10-24T07:15:17.059Z,4.30
2023-10-24T07:17:44.174Z,3.78
2023-10-24T07:20:11.596Z,3.58
2023-10-24T07:22:38.373Z,3.60
2023-10-24T07:25:05.741Z,3.42
2023-10-24T07:27:32.267Z,3.78
2023-10-24T07:29:58.984Z,3.78
2023-10-24T07:32:25.648Z,3.30
2023-10-24T07:34:57.092Z,2.97
2023-10-24T07:37:25.121Z,3.63
2023-10-24T07:39:51.893Z,3.00
2023-10-24T07:42:18.446Z,3.70
2023-10-24T07:44:45.000Z,3.13
2023-10-24T07:47:11.689Z,2.88
2023-10-24T07:49:38.268Z,2.92
2023-10-24T07:52:05.168Z,3.10
2023-10-24T07:54:32.050Z,3.53
2023-10-24T07:56:59.849Z,4.72
2023-10-24T07:59:27.266Z,4.13
2023-10-24T08:01:54.402Z,3.53
2023-10-24T08:04:21.310Z,3.30
2023-10-24T08:06:47.953Z,3.85
2023-10-24T08:09:14.506Z,3.65
2023-10-24T08:11:41.656Z,4.50
2023-10-24T08:14:08.215Z,3.20
2023-10-24T08:16:34.955Z,3.53
2023-10-24T08:19:01.551Z,3.30
2023-10-24T08:21:28.141Z,4.32
2023-10-24T08:23:55.781Z,3.25
2023-10-24T08:26:22.440Z,3.97
2023-10-24T08:28:49.416Z,4.00
2023-10-24T08:31:16.134Z,3.72
2023-10-24T08:33:43.110Z,3.67
2023-10-24T08:36:09.766Z,3.95
2023-10-24T08:38:36.332Z,3.63
2023-10-24T08:41:03.516Z,4.63
2023-10-24T08:43:30.515Z,4.95
2023-10-24T08:45:58.781Z,4.10
2023-10-24T08:48:40.581Z,4.68
2023-10-24T08:51:07.332Z,4.43
2023-10-24T08:53:33.969Z,5.57
2023-10-24T08:56:01.279Z,4.68
2023-10-24T08:58:29.269Z,5.00
2023-10-24T09:00:56.031Z,4.65
2023-10-24T09:03:23.651Z,4.75
2023-10-24T09:05:50.984Z,5.25
2023-10-24T09:08:19.207Z,5.50
2023-10-24T09:10:46.628Z,5.10
2023-10-24T09:13:14.112Z,5.28
2023-10-24T09:15:40.805Z,5.45
2023-10-24T09:18:07.860Z,5.38
2023-10-24T09:20:34.805Z,6.13
2023-10-24T09:23:08.557Z,5.82
2023-10-24T09:25:35.596Z,5.60
2023-10-24T09:28:19.303Z,5.78
2023-10-24T09:30:46.482Z,5.93
2023-10-24T09:33:13.292Z,6.40
2023-10-24T09:35:40.342Z,6.43
2023-10-24T09:38:08.432Z,6.75
2023-10-24T09:40:37.603Z,7.40
2023-10-24T09:43:20.088Z,6.38
2023-10-24T09:45:47.776Z,5.72
2023-10-24T09:48:15.985Z,5.60
2023-10-24T09:50:43.356Z,5.40
2023-10-24T09:53:11.300Z,5.35
2023-10-24T09:55:46.968Z,5.00
2023-10-24T09:58:14.414Z,5.97
2023-10-24T10:00:41.763Z,6.00
2023-10-24T10:03:11.010Z,6.15
2023-10-24T10:08:08.727Z,7.32
2023-10-24T10:10:38.341Z,6.82
2023-10-24T10:13:08.847Z,7.65
2023-10-24T10:16:03.574Z,8.18
2023-10-24T10:18:56.324Z,6.30
2023-10-24T10:21:33.977Z,7.03
2023-10-24T10:24:09.414Z,7.20
2023-10-24T10:27:03.667Z,6.88
2023-10-24T10:30:12.786Z,6.68
2023-10-24T10:32:58.256Z,6.63
2023-10-24T10:35:56.342Z,6.80
2023-10-24T10:38:48.464Z,7.20
2023-10-24T10:41:24.168Z,8.45
2023-10-24T10:43:55.258Z,6.70
2023-10-24T10:46:25.115Z,6.95
2023-10-24T10:48:52.180Z,7.05
2023-10-24T10:51:26.001Z,6.90
2023-10-24T10:54:43.813Z,7.10
2023-10-24T10:57:15.903Z,6.60
2023-10-24T10:59:58.678Z,6.53
2023-10-24T11:02:34.261Z,6.88
2023-10-24T11:05:00.945Z,6.28
2023-10-24T11:07:52.587Z,6.55
2023-10-24T11:10:19.825Z,6.60
2023-10-24T11:12:49.645Z,8.52
2023-10-24T11:15:18.037Z,7.15
2023-10-24T11:17:44.944Z,7.05
2023-10-24T11:22:41.328Z,7.03
2023-10-24T11:25:11.791Z,6.97
2023-10-24T11:27:39.478Z,7.35
2023-10-24T11:30:07.532Z,7.07
2023-10-24T11:32:34.919Z,6.90
2023-10-24T11:35:03.660Z,7.90
2023-10-24T11:37:30.400Z,7.50
2023-10-24T11:40:00.292Z,7.35
2023-10-24T11:42:27.781Z,7.75
2023-10-24T11:44:54.471Z,7.30
2023-10-24T11:47:21.052Z,7.38
2023-10-24T11:49:48.174Z,7.80
2023-10-24T11:52:15.075Z,7.03
2023-10-24T11:54:41.814Z,6.75
2023-10-24T11:57:08.734Z,7.97
2023-10-24T11:59:36.619Z,7.05
2023-10-24T12:02:04.803Z,7.47
2023-10-24T12:04:32.168Z,8.00
2023-10-24T12:07:05.458Z,7.57
2023-10-24T12:09:35.939Z,8.32
2023-10-24T12:12:03.675Z,7.32
2023-10-24T12:14:30.258Z,7.55
2023-10-24T12:16:59.932Z,7.85
2023-10-24T12:19:27.121Z,7.30
2023-10-24T12:21:54.998Z,8.30
2023-10-24T12:24:21.610Z,7.00
2023-10-24T12:26:48.707Z,7.45
2023-10-24T12:29:15.295Z,7.15
2023-10-24T12:31:42.065Z,8.48
2023-10-24T12:34:13.750Z,7.03
2023-10-24T12:36:40.380Z,7.45
2023-10-24T12:39:06.908Z,7.45
2023-10-24T12:41:33.454Z,7.82
2023-10-24T12:44:00.616Z,7.05
2023-10-24T12:46:27.412Z,8.00
2023-10-24T12:49:01.563Z,7.60
2023-10-24T12:51:29.402Z,7.85
2023-10-24T12:53:55.930Z,8.57
2023-10-24T12:56:22.567Z,9.93
2023-10-24T12:58:51.763Z,9.00
2023-10-24T13:01:18.907Z,7.53
2023-10-24T13:03:45.663Z,8.63
2023-10-24T13:06:12.349Z,8.48
2023-10-24T13:08:38.915Z,8.85
2023-10-24T13:11:05.637Z,8.75
2023-10-24T13:13:32.264Z,9.25
2023-10-24T13:15:58.906Z,9.30
2023-10-24T13:18:27.736Z,8.90
2023-10-24T13:20:54.294Z,8.57
2023-10-24T13:23:20.776Z,9.27
2023-10-24T13:25:47.773Z,8.30
2023-10-24T13:28:14.318Z,8.88
2023-10-24T13:30:47.088Z,9.20
2023-10-24T13:33:19.422Z,9.60
2023-10-24T13:40:41.798Z,9.52
2023-10-24T13:43:08.347Z,9.52
2023-10-24T13:45:34.966Z,9.88
2023-10-24T13:48:01.467Z,10.65
2023-10-24T13:50:28.181Z,9.40
2023-10-24T13:52:54.758Z,10.88
2023-10-24T13:55:21.318Z,10.18
2023-10-24T13:57:48.117Z,13.02
2023-10-24T14:00:15.200Z,8.85
2023-10-24T14:02:41.846Z,9.70
2023-10-24T14:05:08.891Z,10.00
2023-10-24T14:07:35.559Z,8.93
2023-10-24T14:10:02.081Z,8.57
2023-10-24T14:12:28.627Z,9.80
2023-10-24T14:14:55.181Z,9.90
2023-10-24T14:17:21.693Z,9.70
2023-10-24T14:19:50.252Z,9.52
2023-10-24T14:22:16.874Z,9.93
2023-10-24T14:24:43.359Z,10.30
2023-10-24T14:27:09.920Z,10.55
2023-10-24T14:29:36.789Z,11.52
2023-10-24T14:32:03.611Z,11.52
2023-10-24T14:34:30.202Z,10.70
2023-10-24T14:36:56.985Z,11.35
2023-10-24T14:39:23.502Z,11.82
2023-10-24T14:41:50.768Z,11.40
2023-10-24T14:44:17.384Z,12.45
2023-10-24T14:46:48.501Z,12.00
2023-10-24T14:49:16.994Z,12.25
2023-10-24T14:51:44.481Z,13.65
2023-10-24T14:54:13.962Z,11.98
2023-10-24T14:59:06.921Z,12.98
2023-10-24T15:01:33.482Z,12.77
2023-10-24T15:04:00.059Z,12.98
2023-10-24T15:06:27.591Z,14.50
2023-10-24T15:08:55.281Z,11.82
2023-10-24T15:11:21.837Z,12.68
2023-10-24T15:13:48.459Z,14.27
2023-10-24T15:16:15.074Z,13.70
2023-10-24T15:18:41.961Z,11.52
2023-10-24T15:21:08.584Z,12.73
2023-10-24T15:23:35.418Z,11.70
2023-10-24T15:26:02.631Z,12.60
2023-10-24T15:28:29.197Z,13.40
2023-10-24T15:30:55.755Z,11.57
2023-10-24T15:33:24.340Z,11.20
2023-10-24T15:35:59.134Z,10.93
2023-10-24T15:38:25.784Z,11.57
2023-10-24T15:40:52.504Z,12.45
2023-10-24T15:43:19.165Z,12.20
2023-10-24T15:46:05.790Z,12.35
2023-10-24T15:48:33.008Z,12.38
2023-10-24T15:51:04.460Z,11.52
2023-10-24T15:53:31.762Z,12.45
2023-10-24T15:55:59.608Z,12.50
2023-10-24T15:58:33.078Z,13.52
2023-10-24T16:00:59.775Z,12.80
2023-10-24T16:03:26.471Z,12.65
2023-10-24T16:05:53.625Z,14.05
2023-10-24T16:08:20.264Z,13.80
2023-10-24T16:10:48.340Z,13.57
2023-10-24T16:13:14.981Z,14.40
2023-10-24T16:15:41.592Z,14.85
2023-10-24T16:18:10.106Z,14.55
2023-10-24T16:20:36.727Z,14.25
2023-10-24T16:23:03.964Z,14.27
2023-10-24T16:25:32.429Z,14.23
2023-10-24T16:27:58.946Z,14.65
2023-10-24T16:30:25.618Z,15.13
2023-10-24T16:32:53.789Z,17.50
2023-10-24T16:35:20.588Z,16.80
2023-10-24T16:37:47.194Z,15.77
2023-10-24T16:40:13.764Z,16.17
2023-10-24T16:42:40.261Z,15.52
2023-10-24T16:45:08.012Z,15.13
2023-10-24T16:47:34.538Z,15.70
2023-10-24T16:50:01.230Z,15.85
2023-10-24T16:52:27.840Z,17.23
2023-10-24T16:54:54.381Z,24.33
2023-10-24T16:57:20.905Z,21.80
2023-10-24T16:59:47.383Z,17.65
2023-10-24T17:02:14.160Z,18.73
2023-10-24T17:04:41.040Z,17.58
2023-10-24T17:07:07.794Z,17.88
2023-10-24T17:09:35.854Z,17.40
2023-10-24T17:12:02.790Z,17.80
2023-10-24T17:14:29.327Z,17.63
2023-10-24T17:16:55.911Z,17.90
2023-10-24T17:19:22.511Z,19.50
2023-10-24T17:21:49.072Z,18.33
2023-10-24T17:24:15.584Z,18.10
2023-10-24T17:26:42.105Z,18.88
2023-10-24T17:29:08.651Z,18.02
2023-10-24T17:31:35.354Z,19.40
2023-10-24T17:34:03.136Z,19.40
2023-10-24T17:36:29.588Z,19.85
2023-10-24T17:38:56.118Z,16.77
2023-10-24T17:41:22.742Z,17.58
2023-10-24T17:43:49.297Z,17.17
2023-10-24T17:46:21.662Z,17.33
2023-10-24T17:48:49.579Z,17.20
2023-10-24T17:51:16.073Z,18.42
2023-10-24T17:53:42.696Z,17.55
2023-10-24T17:56:09.231Z,17.48
2023-10-24T17:58:36.544Z,16.88
2023-10-24T18:01:03.941Z,18.15
2023-10-24T18:03:30.513Z,16.70
2023-10-24T18:05:57.160Z,16.42
2023-10-24T18:08:23.670Z,16.05
2023-10-24T18:10:54.299Z,17.10
2023-10-24T18:13:20.864Z,18.52
2023-10-24T18:15:47.395Z,17.42
2023-10-24T18:18:16.169Z,17.70
2023-10-24T18:20:42.730Z,18.65
2023-10-24T18:23:09.479Z,18.30
2023-10-24T18:25:36.071Z,17.63
2023-10-24T18:28:02.586Z,17.20
2023-10-24T18:30:29.069Z,19.13
2023-10-24T18:32:55.659Z,20.00
2023-10-24T18:35:22.334Z,19.90
2023-10-24T18:37:48.957Z,20.98
2023-10-24T18:40:17.317Z,21.13
2023-10-24T18:42:44.845Z,21.20
2023-10-24T18:45:11.438Z,21.95
2023-10-24T18:47:38.030Z,24.92
2023-10-24T18:50:05.033Z,22.73
2023-10-24T18:52:31.585Z,25.83
2023-10-24T18:54:58.125Z,22.88
2023-10-24T18:57:24.709Z,23.38
2023-10-24T19:02:21.629Z,25.10
2023-10-24T19:04:49.701Z,22.27
2023-10-24T19:07:16.310Z,22.33
2023-10-24T19:09:43.173Z,21.10
2023-10-24T19:12:10.613Z,20.08
2023-10-24T19:14:37.554Z,21.42
2023-10-24T19:17:04.462Z,21.70
2023-10-24T19:19:31.208Z,19.70
2023-10-24T19:21:57.947Z,19.95
2023-10-24T19:24:26.505Z,17.30
2023-10-24T19:26:53.949Z,15.30
2023-10-24T19:29:20.821Z,16.45
2023-10-24T19:31:47.672Z,16.52
2023-10-24T19:34:14.472Z,17.95
2023-10-24T19:36:44.363Z,17.60
2023-10-24T19:39:11.373Z,17.80
2023-10-24T19:41:38.135Z,17.15
2023-10-24T19:44:04.961Z,17.42
2023-10-24T19:46:36.749Z,19.08
2023-10-24T19:49:05.097Z,19.33
2023-10-24T19:51:34.361Z,20.05
2023-10-24T19:54:02.790Z,19.83
2023-10-24T19:56:31.937Z,22.13
2023-10-24T19:58:58.869Z,19.90
2023-10-24T20:01:25.777Z,19.33
2023-10-24T20:03:52.752Z,20.42
2023-10-24T20:06:19.641Z,21.60
2023-10-24T20:08:46.382Z,21.80
2023-10-24T20:12:32.821Z,19.98
2023-10-24T20:14:02.059Z,20.75
2023-10-24T20:16:32.207Z,19.55
2023-10-24T20:18:59.367Z,20.85
2023-10-24T20:21:26.459Z,19.95
2023-10-24T20:23:53.476Z,20.23
2023-10-24T20:26:22.236Z,19.15
2023-10-24T20:28:48.748Z,21.55
2023-10-24T20:31:15.507Z,19.20
2023-10-24T20:33:42.163Z,20.25
2023-10-24T20:36:09.334Z,22.75
2023-10-24T20:38:35.984Z,20.25
2023-10-24T20:41:02.592Z,21.25
2023-10-24T20:43:29.089Z,19.70
2023-10-24T20:45:55.636Z,19.33
2023-10-24T20:48:22.228Z,17.50
2023-10-24T20:50:49.182Z,18.05
2023-10-24T20:53:15.780Z,18.42
2023-10-24T20:55:42.449Z,15.45
2023-10-24T20:58:09.074Z,16.42
2023-10-24T21:00:35.714Z,14.65
2023-10-24T21:03:03.662Z,13.90
2023-10-24T21:05:30.275Z,13.27
2023-10-24T21:07:57.433Z,12.82
2023-10-24T21:10:23.980Z,11.32
2023-10-24T21:12:51.791Z,11.57
2023-10-24T21:15:18.505Z,10.98
2023-10-24T21:17:46.228Z,11.05
2023-10-24T21:20:13.087Z,12.15
2023-10-24T21:22:39.705Z,11.63
2023-10-24T21:25:06.886Z,11.57
2023-10-24T21:27:33.406Z,12.23
2023-10-24T21:29:59.938Z,13.27
2023-10-24T21:32:26.485Z,13.05
2023-10-24T21:34:53.169Z,14.18
2023-10-24T21:37:19.764Z,14.07
2023-10-24T21:39:46.323Z,13.65
2023-10-24T21:42:12.955Z,13.68
2023-10-24T21:44:47.091Z,14.20
2023-10-24T21:47:17.321Z,14.50
2023-10-24T21:49:43.922Z,14.88
2023-10-24T21:52:10.518Z,16.38
2023-10-24T21:54:37.244Z,16.00
2023-10-24T21:57:04.028Z,15.95
2023-10-24T21:59:30.554Z,17.70
2023-10-24T22:01:57.118Z,17.20
2023-10-24T22:04:23.758Z,17.70
2023-10-24T22:06:50.280Z,18.15
2023-10-24T22:09:16.838Z,18.05
2023-10-24T22:11:43.371Z,17.92
2023-10-24T22:14:09.901Z,17.90
2023-10-24T22:16:36.506Z,18.60
2023-10-24T22:19:03.105Z,20.05
2023-10-24T22:21:29.886Z,18.70
2023-10-24T22:23:56.442Z,17.67
2023-10-24T22:26:23.007Z,17.02
2023-10-24T22:28:49.531Z,16.90
2023-10-24T22:31:16.214Z,15.77
2023-10-24T22:33:42.940Z,14.43
2023-10-24T22:36:09.490Z,13.55
2023-10-24T22:38:35.992Z,14.55
2023-10-24T22:41:02.580Z,15.20
2023-10-24T22:43:29.321Z,14.95
2023-10-24T22:45:55.920Z,15.38
2023-10-24T22:48:22.502Z,15.43
2023-10-24T22:50:49.076Z,15.93
2023-10-24T22:53:15.587Z,16.02
2023-10-24T22:55:42.097Z,15.75
2023-10-24T22:58:08.665Z,16.20
2023-10-24T23:00:35.286Z,15.85
2023-10-24T23:03:01.998Z,16.65
2023-10-24T23:05:28.559Z,16.15
2023-10-24T23:07:55.079Z,17.05
2023-10-24T23:10:21.624Z,17.63
2023-10-24T23:12:48.176Z,17.45
2023-10-24T23:15:14.807Z,16.23
2023-10-24T23:17:41.334Z,17.05
2023-10-24T23:20:09.125Z,15.38
2023-10-24T23:22:35.678Z,14.20
2023-10-24T23:25:02.219Z,13.07
2023-10-24T23:27:31.160Z,14.13
2023-10-24T23:29:57.690Z,13.65
2023-10-24T23:32:24.167Z,12.60
2023-10-24T23:34:50.665Z,12.88
2023-10-24T23:37:17.261Z,13.35
2023-10-24T23:39:43.871Z,12.88
2023-10-24T23:42:11.262Z,13.75
2023-10-24T23:44:37.822Z,11.90
2023-10-24T23:47:04.578Z,13.25
2023-10-24T23:49:31.286Z,12.27
2023-10-24T23:51:57.857Z,12.90
2023-10-24T23:54:24.372Z,12.38
2023-10-24T23:56:50.881Z,12.68
2023-10-24T23:59:17.418Z,12.57
